Cochise — WDD8952 — position and weather

sailwx.info

Track history (hours):
 
Tides and Currents Weather Stations Pressure Air Temp Water Temp Dewpoint Dewpoint Depression Visibility Wind Speed Wind Dir Waves Ship Positions

Cochise

Owner: Sause Bros, Coos Bay, OR. More information available from US FCC via Universal Licensing System and Coast Guard Vessel Documentation Center.

Last reported at 2016-May-02 07:34 UTC. Time now 2016-May-02 08:19 UTC.
Position N 38°03' W 122°06'.

Length 32 m; draft 4.8 m.

Type: Towing. MMSI: 367304990.

Date/timePositionNaut miles runAvg speedWind from/ knotsBaromVisibWave heightAir tempDewpointWater temp
2016-May-02 07:34N 38°03' W 122°06'4 3.7
2016-May-02 06:34N 38°03' W 122°11'7 7.3
2016-May-02 05:33N 38°03' W 122°20'7 7.3
2016-May-02 04:33N 37°57' W 122°26'2 1.9
2016-May-02 03:34N 37°55' W 122°25'0 0.0
2016-May-02 02:32N 37°55' W 122°25'0 0.0
2016-May-02 01:32N 37°55' W 122°25'0 0.0
2016-May-02 00:29N 37°55' W 122°25'0 0.0
2016-May-01 23:32N 37°55' W 122°25'0 0.0
2016-May-01 22:32N 37°55' W 122°25'0 0.0
2016-May-01 21:32N 37°55' W 122°25'0 0.0
2016-May-01 20:29N 37°55' W 122°25'0 0.0
2016-May-01 19:32N 37°55' W 122°25'0 0.0
2016-May-01 18:32N 37°55' W 122°25'0 0.0
2016-May-01 17:32N 37°55' W 122°25'0 0.0
2016-May-01 16:17N 37°55' W 122°25'0 0.0
2016-May-01 15:32N 37°55' W 122°25'0 0.0
2016-May-01 14:32N 37°55' W 122°25'0 0.0
2016-May-01 13:32N 37°55' W 122°25'0 0.0
2016-May-01 12:32N 37°55' W 122°25'0 0.0
2016-May-01 11:32N 37°55' W 122°25'0 0.0
2016-May-01 10:32N 37°55' W 122°25'0 0.0
2016-May-01 09:20N 37°55' W 122°25'0 0.0
2016-May-01 08:29N 37°55' W 122°25'0 0.0
2016-May-01 07:32N 37°55' W 122°25'0 0.0
2016-May-01 06:32N 37°55' W 122°25'1 1.0
2016-May-01 05:29N 37°55' W 122°26'0 0.1
2016-May-01 02:28N 37°55' W 122°26'0 0.0
2016-May-01 01:28N 37°55' W 122°26'2 2.2
2016-May-01 00:32N 37°53' W 122°25'10 9.8
2016-Apr-30 23:33N 37°47' W 122°34'9 9.2
2016-Apr-30 22:33N 37°47' W 122°46'9 9.4
2016-Apr-30 21:33N 37°51' W 122°57'10 9.8
2016-Apr-30 20:33N 37°56' W 123°07'10 9.9
2016-Apr-30 19:33N 38°03' W 123°16'1010.3
2016-Apr-30 18:33N 38°11' W 123°24'10 9.6
2016-Apr-30 17:33N 38°20' W 123°30'10 9.8
2016-Apr-30 16:33N 38°28' W 123°36'10 9.9
2016-Apr-30 15:33N 38°37' W 123°42'1110.5
2016-Apr-30 14:31N 38°46' W 123°48'  
2016-Apr-26 08:14N 38°01' W 123°11'10 3.4
2016-Apr-26 05:19N 37°55' W 123°00'17 4.4
2016-Apr-26 01:32N 37°47' W 122°42'5 4.8
2016-Apr-26 00:31N 37°46' W 122°36'7 7.5
2016-Apr-25 23:34N 37°49' W 122°28'6 5.9
2016-Apr-25 22:33N 37°55' W 122°25'1 0.5
2016-Apr-25 21:32N 37°55' W 122°25'0 0.2
2016-Apr-25 20:15N 37°55' W 122°25'0 0.0
2016-Apr-25 19:27N 37°55' W 122°25'0 0.0
2016-Apr-25 17:33N 37°55' W 122°25'0 0.0
2016-Apr-25 15:21N 37°55' W 122°25'0 0.0
2016-Apr-25 14:15N 37°55' W 122°25'0 0.0
2016-Apr-25 13:03N 37°55' W 122°25'0 0.0
2016-Apr-25 12:27N 37°55' W 122°25'0 0.0
2016-Apr-25 10:33N 37°55' W 122°25'0 0.0
2016-Apr-25 09:33N 37°55' W 122°25'0 0.0
2016-Apr-25 07:30N 37°55' W 122°25'1 1.3
2016-Apr-25 06:33N 37°55' W 122°26'0 0.1
2016-Apr-25 05:27N 37°55' W 122°26'0 0.0
2016-Apr-25 04:27N 37°55' W 122°26'0 0.0
2016-Apr-25 03:33N 37°55' W 122°26'0 0.0
2016-Apr-25 02:33N 37°55' W 122°26'0 0.0
2016-Apr-25 01:33N 37°55' W 122°26'0 0.0
2016-Apr-25 00:33N 37°55' W 122°26'0 0.1
2016-Apr-24 23:21N 37°55' W 122°26'0 0.0
2016-Apr-24 20:33N 37°55' W 122°26'0 0.0
2016-Apr-24 18:33N 37°55' W 122°26'0 0.1
2016-Apr-24 17:33N 37°55' W 122°26'0 0.0
2016-Apr-24 16:30N 37°55' W 122°26'0 0.0
2016-Apr-24 15:27N 37°55' W 122°26'0 0.0
2016-Apr-24 14:33N 37°55' W 122°26'0 0.0
2016-Apr-24 12:33N 37°55' W 122°26'0 0.0
2016-Apr-24 11:21N 37°55' W 122°26'0 0.0
2016-Apr-24 10:33N 37°55' W 122°26'0 0.1
2016-Apr-24 09:20N 37°55' W 122°26'4 5.7
2016-Apr-24 08:33N 37°60' W 122°25'9 9.0
2016-Apr-24 07:33N 38°04' W 122°15'6 0.3
2016-Apr-23 11:30N 38°02' W 122°07'6 6.0
2016-Apr-23 10:28N 38°04' W 122°15'10 9.7
2016-Apr-23 09:27N 37°59' W 122°26'3 0.7
2016-Apr-23 04:27N 37°55' W 122°26'0 0.0
2016-Apr-23 03:33N 37°55' W 122°26'0 0.0
2016-Apr-23 02:33N 37°55' W 122°26'0 0.0
2016-Apr-23 01:33N 37°55' W 122°26'0 0.0
2016-Apr-23 00:27N 37°55' W 122°26'0 0.1
2016-Apr-22 23:33N 37°55' W 122°26'0 0.0
2016-Apr-22 22:33N 37°55' W 122°26'0 0.0
2016-Apr-22 21:27N 37°56' W 122°26'0 0.0
2016-Apr-22 16:12N 37°55' W 122°26'0 0.1
2016-Apr-22 15:33N 37°55' W 122°26'0 0.0
2016-Apr-22 14:27N 37°55' W 122°26'0 0.0
2016-Apr-22 13:21N 37°55' W 122°26'0 0.0
2016-Apr-22 12:33N 37°55' W 122°26'0 0.0
2016-Apr-22 11:33N 37°55' W 122°26'0 0.0
2016-Apr-22 10:33N 37°55' W 122°26'0 0.1
2016-Apr-22 09:31N 37°56' W 122°26'0 0.0
2016-Apr-22 08:32N 37°56' W 122°26'  
Track history (hours):
 
Tides and Currents Weather Stations Pressure Air Temp Water Temp Dewpoint Dewpoint Depression Visibility Wind Speed Wind Dir Waves Ship Positions

Cochise

Owner: Sause Bros, Coos Bay, OR. More information available from US FCC via Universal Licensing System and Coast Guard Vessel Documentation Center.

Last reported at 2016-May-02 07:34 UTC. Time now 2016-May-02 08:19 UTC.
Position N 38°03' W 122°06'.

Length 32 m; draft 4.8 m.

Type: Towing. MMSI: 367304990.

Date/timePositionNaut miles runAvg speedWind from/ knotsBaromVisibWave heightAir tempDewpointWater temp
2016-May-02 07:34N 38°03' W 122°06'4 3.7
2016-May-02 06:34N 38°03' W 122°11'7 7.3
2016-May-02 05:33N 38°03' W 122°20'7 7.3
2016-May-02 04:33N 37°57' W 122°26'2 1.9
2016-May-02 03:34N 37°55' W 122°25'0 0.0
2016-May-02 02:32N 37°55' W 122°25'0 0.0
2016-May-02 01:32N 37°55' W 122°25'0 0.0
2016-May-02 00:29N 37°55' W 122°25'0 0.0
2016-May-01 23:32N 37°55' W 122°25'0 0.0
2016-May-01 22:32N 37°55' W 122°25'0 0.0
2016-May-01 21:32N 37°55' W 122°25'0 0.0
2016-May-01 20:29N 37°55' W 122°25'0 0.0
2016-May-01 19:32N 37°55' W 122°25'0 0.0
2016-May-01 18:32N 37°55' W 122°25'0 0.0
2016-May-01 17:32N 37°55' W 122°25'0 0.0
2016-May-01 16:17N 37°55' W 122°25'0 0.0
2016-May-01 15:32N 37°55' W 122°25'0 0.0
2016-May-01 14:32N 37°55' W 122°25'0 0.0
2016-May-01 13:32N 37°55' W 122°25'0 0.0
2016-May-01 12:32N 37°55' W 122°25'0 0.0
2016-May-01 11:32N 37°55' W 122°25'0 0.0
2016-May-01 10:32N 37°55' W 122°25'0 0.0
2016-May-01 09:20N 37°55' W 122°25'0 0.0
2016-May-01 08:29N 37°55' W 122°25'0 0.0
2016-May-01 07:32N 37°55' W 122°25'0 0.0
2016-May-01 06:32N 37°55' W 122°25'1 1.0
2016-May-01 05:29N 37°55' W 122°26'0 0.1
2016-May-01 02:28N 37°55' W 122°26'0 0.0
2016-May-01 01:28N 37°55' W 122°26'2 2.2
2016-May-01 00:32N 37°53' W 122°25'10 9.8
2016-Apr-30 23:33N 37°47' W 122°34'9 9.2
2016-Apr-30 22:33N 37°47' W 122°46'9 9.4
2016-Apr-30 21:33N 37°51' W 122°57'10 9.8
2016-Apr-30 20:33N 37°56' W 123°07'10 9.9
2016-Apr-30 19:33N 38°03' W 123°16'1010.3
2016-Apr-30 18:33N 38°11' W 123°24'10 9.6
2016-Apr-30 17:33N 38°20' W 123°30'10 9.8
2016-Apr-30 16:33N 38°28' W 123°36'10 9.9
2016-Apr-30 15:33N 38°37' W 123°42'1110.5
2016-Apr-30 14:31N 38°46' W 123°48'  
2016-Apr-26 08:14N 38°01' W 123°11'10 3.4
2016-Apr-26 05:19N 37°55' W 123°00'17 4.4
2016-Apr-26 01:32N 37°47' W 122°42'5 4.8
2016-Apr-26 00:31N 37°46' W 122°36'7 7.5
2016-Apr-25 23:34N 37°49' W 122°28'6 5.9
2016-Apr-25 22:33N 37°55' W 122°25'1 0.5
2016-Apr-25 21:32N 37°55' W 122°25'0 0.2
2016-Apr-25 20:15N 37°55' W 122°25'0 0.0
2016-Apr-25 19:27N 37°55' W 122°25'0 0.0
2016-Apr-25 17:33N 37°55' W 122°25'0 0.0
2016-Apr-25 15:21N 37°55' W 122°25'0 0.0
2016-Apr-25 14:15N 37°55' W 122°25'0 0.0
2016-Apr-25 13:03N 37°55' W 122°25'0 0.0
2016-Apr-25 12:27N 37°55' W 122°25'0 0.0
2016-Apr-25 10:33N 37°55' W 122°25'0 0.0
2016-Apr-25 09:33N 37°55' W 122°25'0 0.0
2016-Apr-25 07:30N 37°55' W 122°25'1 1.3
2016-Apr-25 06:33N 37°55' W 122°26'0 0.1
2016-Apr-25 05:27N 37°55' W 122°26'0 0.0
2016-Apr-25 04:27N 37°55' W 122°26'0 0.0
2016-Apr-25 03:33N 37°55' W 122°26'0 0.0
2016-Apr-25 02:33N 37°55' W 122°26'0 0.0
2016-Apr-25 01:33N 37°55' W 122°26'0 0.0
2016-Apr-25 00:33N 37°55' W 122°26'0 0.1
2016-Apr-24 23:21N 37°55' W 122°26'0 0.0
2016-Apr-24 20:33N 37°55' W 122°26'0 0.0
2016-Apr-24 18:33N 37°55' W 122°26'0 0.1
2016-Apr-24 17:33N 37°55' W 122°26'0 0.0
2016-Apr-24 16:30N 37°55' W 122°26'0 0.0
2016-Apr-24 15:27N 37°55' W 122°26'0 0.0
2016-Apr-24 14:33N 37°55' W 122°26'0 0.0
2016-Apr-24 12:33N 37°55' W 122°26'0 0.0
2016-Apr-24 11:21N 37°55' W 122°26'0 0.0
2016-Apr-24 10:33N 37°55' W 122°26'0 0.1
2016-Apr-24 09:20N 37°55' W 122°26'4 5.7
2016-Apr-24 08:33N 37°60' W 122°25'9 9.0
2016-Apr-24 07:33N 38°04' W 122°15'6 0.3
2016-Apr-23 11:30N 38°02' W 122°07'6 6.0
2016-Apr-23 10:28N 38°04' W 122°15'10 9.7
2016-Apr-23 09:27N 37°59' W 122°26'3 0.7
2016-Apr-23 04:27N 37°55' W 122°26'0 0.0
2016-Apr-23 03:33N 37°55' W 122°26'0 0.0
2016-Apr-23 02:33N 37°55' W 122°26'0 0.0
2016-Apr-23 01:33N 37°55' W 122°26'0 0.0
2016-Apr-23 00:27N 37°55' W 122°26'0 0.1
2016-Apr-22 23:33N 37°55' W 122°26'0 0.0
2016-Apr-22 22:33N 37°55' W 122°26'0 0.0
2016-Apr-22 21:27N 37°56' W 122°26'0 0.0
2016-Apr-22 16:12N 37°55' W 122°26'0 0.1
2016-Apr-22 15:33N 37°55' W 122°26'0 0.0
2016-Apr-22 14:27N 37°55' W 122°26'0 0.0
2016-Apr-22 13:21N 37°55' W 122°26'0 0.0
2016-Apr-22 12:33N 37°55' W 122°26'0 0.0
2016-Apr-22 11:33N 37°55' W 122°26'0 0.0
2016-Apr-22 10:33N 37°55' W 122°26'0 0.1
2016-Apr-22 09:31N 37°56' W 122°26'0 0.0
2016-Apr-22 08:32N 37°56' W 122°26'  

Dump ship's entire track history